createdAt,value
2018-04-24T00:00:10.608Z,9.00
2018-04-24T00:01:10.622Z,9.60
2018-04-24T00:02:10.644Z,9.40
2018-04-24T00:03:10.665Z,9.60
2018-04-24T00:04:10.686Z,9.20
2018-04-24T00:05:10.702Z,9.20
2018-04-24T00:06:10.726Z,9.20
2018-04-24T00:07:10.739Z,9.10
2018-04-24T00:08:10.813Z,9.20
2018-04-24T00:09:10.781Z,9.10
2018-04-24T00:10:10.800Z,9.20
2018-04-24T00:11:10.824Z,9.30
2018-04-24T00:12:10.847Z,9.60
2018-04-24T00:13:10.858Z,9.00
2018-04-24T00:14:10.891Z,9.70
2018-04-24T00:15:10.902Z,8.90
2018-04-24T00:16:10.925Z,9.10
2018-04-24T00:17:10.945Z,8.90
2018-04-24T00:18:10.999Z,9.20
2018-04-24T00:19:10.985Z,9.40
2018-04-24T00:20:11.001Z,8.90
2018-04-24T00:21:11.026Z,9.30
2018-04-24T00:22:11.044Z,9.00
2018-04-24T00:23:11.065Z,9.30
2018-04-24T00:24:11.116Z,8.70
2018-04-24T00:25:11.102Z,8.80
2018-04-24T00:26:11.250Z,9.10
2018-04-24T00:27:11.140Z,8.70
2018-04-24T00:28:11.163Z,8.60
2018-04-24T00:29:11.180Z,8.90
2018-04-24T00:30:11.249Z,8.60
2018-04-24T00:31:11.222Z,8.90
2018-04-24T00:32:11.246Z,8.70
2018-04-24T00:33:11.260Z,9.00
2018-04-24T00:34:11.282Z,9.10
2018-04-24T00:35:11.304Z,9.00
2018-04-24T00:36:11.321Z,8.60
2018-04-24T00:37:11.338Z,9.00
2018-04-24T00:38:11.418Z,9.30
2018-04-24T00:39:11.384Z,9.30
2018-04-24T00:40:11.404Z,8.50
2018-04-24T00:41:11.421Z,9.10
2018-04-24T00:42:11.442Z,9.40
2018-04-24T00:43:11.458Z,9.00
2018-04-24T00:44:11.479Z,9.50
2018-04-24T00:45:11.497Z,8.60
2018-04-24T00:46:11.526Z,9.50
2018-04-24T00:47:11.541Z,9.40
2018-04-24T00:48:11.568Z,9.50
2018-04-24T00:49:11.577Z,9.60
2018-04-24T00:50:11.603Z,8.80
2018-04-24T00:51:11.622Z,9.60
2018-04-24T00:52:11.644Z,9.40
2018-04-24T00:53:11.661Z,8.70
2018-04-24T00:54:11.685Z,9.40
2018-04-24T00:55:11.702Z,9.00
2018-04-24T00:56:11.722Z,9.20
2018-04-24T00:57:11.738Z,9.30
2018-04-24T00:58:11.755Z,8.80
2018-04-24T00:59:11.781Z,8.90
2018-04-24T01:00:11.880Z,8.50
2018-04-24T01:01:11.869Z,8.80
2018-04-24T01:02:11.842Z,9.30
2018-04-24T01:03:11.859Z,8.90
2018-04-24T01:04:11.878Z,8.50
2018-04-24T01:05:11.910Z,8.70
2018-04-24T01:06:11.918Z,8.90
2018-04-24T01:07:11.985Z,9.00
2018-04-24T01:08:11.963Z,8.40
2018-04-24T01:09:11.979Z,9.20
2018-04-24T01:10:11.999Z,8.80
2018-04-24T01:11:12.023Z,9.10
2018-04-24T01:12:12.044Z,8.60
2018-04-24T01:13:12.064Z,8.80
2018-04-24T01:14:12.078Z,9.10
2018-04-24T01:15:12.098Z,8.70
2018-04-24T01:16:12.119Z,8.70
2018-04-24T01:17:12.144Z,9.20
2018-04-24T01:18:12.159Z,8.50
2018-04-24T01:19:12.177Z,9.30
2018-04-24T01:20:12.196Z,8.70
2018-04-24T01:21:12.219Z,8.80
2018-04-24T01:22:12.308Z,8.60
2018-04-24T01:23:12.263Z,9.10
2018-04-24T01:24:12.277Z,8.90
2018-04-24T01:25:12.298Z,9.50
2018-04-24T01:26:12.322Z,9.20
2018-04-24T01:27:12.335Z,9.20
2018-04-24T01:28:12.370Z,9.60
2018-04-24T01:29:12.379Z,8.70
2018-04-24T01:30:12.401Z,8.90
2018-04-24T01:31:12.415Z,8.90
2018-04-24T01:32:12.442Z,9.20
2018-04-24T01:33:12.456Z,9.40
2018-04-24T01:34:12.550Z,9.70
2018-04-24T01:35:12.501Z,9.30
2018-04-24T01:36:12.517Z,9.70
2018-04-24T01:37:12.543Z,9.70
2018-04-24T01:38:12.554Z,9.20
2018-04-24T01:39:12.574Z,8.90
2018-04-24T01:40:12.601Z,9.60
2018-04-24T01:41:12.614Z,9.30
2018-04-24T01:42:12.641Z,9.20
2018-04-24T01:43:12.657Z,9.50
2018-04-24T01:44:12.689Z,10.30
2018-04-24T01:45:12.693Z,9.40
2018-04-24T01:46:12.719Z,10.10
2018-04-24T01:47:12.737Z,9.40
2018-04-24T01:48:12.753Z,9.30
2018-04-24T01:49:12.830Z,9.70
2018-04-24T01:50:12.792Z,9.50
2018-04-24T01:51:12.814Z,9.90
2018-04-24T01:52:12.831Z,9.90
2018-04-24T01:54:12.895Z,9.90
2018-04-24T01:55:12.890Z,10.00
2018-04-24T01:56:12.912Z,9.40
2018-04-24T01:57:12.934Z,9.70
2018-04-24T01:58:12.948Z,9.90
2018-04-24T01:59:12.968Z,9.50
2018-04-24T02:00:12.988Z,9.60
2018-04-24T02:01:13.011Z,10.00
2018-04-24T02:02:13.027Z,9.90
2018-04-24T02:03:13.124Z,9.50
2018-04-24T02:04:13.069Z,9.80
2018-04-24T02:05:13.091Z,9.20
2018-04-24T02:06:13.110Z,9.80
2018-04-24T02:07:13.131Z,10.00
2018-04-24T02:08:13.153Z,9.30
2018-04-24T02:09:13.189Z,9.50
2018-04-24T02:10:13.189Z,10.20
2018-04-24T02:11:13.205Z,9.20
2018-04-24T02:12:13.226Z,10.20
2018-04-24T02:13:13.255Z,9.50
2018-04-24T02:14:13.265Z,10.20
2018-04-24T02:15:13.285Z,10.00
2018-04-24T02:16:13.308Z,9.90
2018-04-24T02:17:13.323Z,9.50
2018-04-24T02:18:13.348Z,9.50
2018-04-24T02:19:13.362Z,9.50
2018-04-24T02:20:13.382Z,9.50
2018-04-24T02:21:13.404Z,9.80
2018-04-24T02:22:13.428Z,10.20
2018-04-24T02:23:13.448Z,10.40
2018-04-24T02:24:13.461Z,10.30
2018-04-24T02:25:13.486Z,9.60
2018-04-24T02:26:13.508Z,10.50
2018-04-24T02:27:13.522Z,9.80
2018-04-24T02:28:13.543Z,10.40
2018-04-24T02:29:13.563Z,10.10
2018-04-24T02:30:13.585Z,9.80
2018-04-24T02:31:13.602Z,10.00
2018-04-24T02:32:13.626Z,9.80
2018-04-24T02:33:13.639Z,10.50
2018-04-24T02:34:13.663Z,9.90
2018-04-24T02:35:13.679Z,10.10
2018-04-24T02:36:13.703Z,10.40
2018-04-24T02:37:13.719Z,9.90
2018-04-24T02:38:13.797Z,10.40
2018-04-24T02:39:13.765Z,10.40
2018-04-24T02:40:13.835Z,10.20
2018-04-24T02:41:13.803Z,11.50
2018-04-24T02:42:13.819Z,10.70
2018-04-24T02:43:13.893Z,11.00
2018-04-24T02:44:13.858Z,10.20
2018-04-24T02:45:13.875Z,10.10
2018-04-24T02:46:13.906Z,9.70
2018-04-24T02:47:13.913Z,10.10
2018-04-24T02:48:13.935Z,10.60
2018-04-24T02:49:14.010Z,10.20
2018-04-24T02:50:13.974Z,10.30
2018-04-24T02:51:13.998Z,9.80
2018-04-24T02:52:14.025Z,10.20
2018-04-24T02:53:14.035Z,10.20
2018-04-24T02:54:14.052Z,10.50
2018-04-24T02:55:14.072Z,9.90
2018-04-24T02:56:14.100Z,10.00
2018-04-24T02:57:14.111Z,10.60
2018-04-24T02:58:14.133Z,10.90
2018-04-24T02:59:14.168Z,10.20
2018-04-24T03:00:14.168Z,10.40
2018-04-24T03:01:14.228Z,10.60
2018-04-24T03:02:14.207Z,10.90
2018-04-24T03:03:14.234Z,10.40
2018-04-24T03:04:14.247Z,10.80
2018-04-24T03:05:14.275Z,10.40
2018-04-24T03:06:14.294Z,10.50
2018-04-24T03:07:14.315Z,10.60
2018-04-24T03:08:14.331Z,10.10
2018-04-24T03:09:14.358Z,10.20
2018-04-24T03:10:14.376Z,10.30
2018-04-24T03:11:14.393Z,10.60
2018-04-24T03:12:14.415Z,10.40
2018-04-24T03:13:14.434Z,9.70
2018-04-24T03:14:14.447Z,10.20
2018-04-24T03:15:14.469Z,10.50
2018-04-24T03:16:14.484Z,10.40
2018-04-24T03:17:14.507Z,10.10
2018-04-24T03:18:14.583Z,9.90
2018-04-24T03:19:14.544Z,10.70
2018-04-24T03:20:14.567Z,10.10
2018-04-24T03:21:14.595Z,10.10
2018-04-24T03:22:14.607Z,10.30
2018-04-24T03:23:14.629Z,10.80
2018-04-24T03:24:14.673Z,10.10
2018-04-24T03:25:14.666Z,10.30
2018-04-24T03:26:14.683Z,9.90
2018-04-24T03:27:14.701Z,11.20
2018-04-24T03:28:14.729Z,10.80
2018-04-24T03:29:14.746Z,10.20
2018-04-24T03:30:14.765Z,10.70
2018-04-24T03:31:14.842Z,11.00
2018-04-24T03:32:14.803Z,10.30
2018-04-24T03:33:14.827Z,10.50
2018-04-24T03:34:14.842Z,10.50
2018-04-24T03:35:14.890Z,10.20
2018-04-24T03:36:14.898Z,10.80
2018-04-24T03:37:14.903Z,10.30
2018-04-24T03:38:14.923Z,10.10
2018-04-24T03:39:14.939Z,10.50
2018-04-24T03:40:14.970Z,10.30
2018-04-24T03:41:15.094Z,10.10
2018-04-24T03:42:15.069Z,10.30
2018-04-24T03:43:15.027Z,9.80
2018-04-24T03:44:15.043Z,10.30
2018-04-24T03:45:15.063Z,10.20
2018-04-24T03:46:15.086Z,10.00
2018-04-24T03:47:15.149Z,10.30
2018-04-24T03:48:15.174Z,10.50
2018-04-24T03:49:15.139Z,10.10
2018-04-24T03:50:15.160Z,10.50
2018-04-24T03:51:15.180Z,10.90
2018-04-24T03:52:15.204Z,10.40
2018-04-24T03:53:15.220Z,10.60
2018-04-24T03:54:15.290Z,11.00
2018-04-24T03:55:15.256Z,10.60
2018-04-24T03:56:15.275Z,10.60
2018-04-24T03:57:15.307Z,10.70
2018-04-24T03:58:15.318Z,10.70
2018-04-24T03:59:15.342Z,10.40
2018-04-24T04:00:15.362Z,10.60
2018-04-24T04:01:15.380Z,10.80
2018-04-24T04:02:15.393Z,11.10
2018-04-24T04:03:15.422Z,11.00
2018-04-24T04:04:15.438Z,10.90
2018-04-24T04:05:15.456Z,10.90
2018-04-24T04:06:15.527Z,11.00
2018-04-24T04:07:15.496Z,10.60
2018-04-24T04:08:15.515Z,10.60
2018-04-24T04:09:15.533Z,11.20
2018-04-24T04:10:15.571Z,11.20
2018-04-24T04:11:15.579Z,10.90
2018-04-24T04:12:15.645Z,10.90
2018-04-24T04:13:15.618Z,11.00
2018-04-24T04:14:15.634Z,11.50
2018-04-24T04:15:15.654Z,11.30
2018-04-24T04:16:15.755Z,11.30
2018-04-24T04:17:15.690Z,11.30
2018-04-24T04:18:15.765Z,11.20
2018-04-24T04:19:15.739Z,10.90
2018-04-24T04:20:15.751Z,11.10
2018-04-24T04:21:15.767Z,11.40
2018-04-24T04:22:15.856Z,11.50
2018-04-24T04:23:15.806Z,12.00
2018-04-24T04:24:15.833Z,12.00
2018-04-24T04:25:15.847Z,11.80
2018-04-24T04:26:15.873Z,11.90
2018-04-24T04:27:15.886Z,10.90
2018-04-24T04:28:15.907Z,11.60
2018-04-24T04:29:15.928Z,11.70
2018-04-24T04:30:15.951Z,11.50
2018-04-24T04:31:15.967Z,11.40
2018-04-24T04:32:15.984Z,11.90
2018-04-24T04:33:16.008Z,11.80
2018-04-24T04:34:16.021Z,11.40
2018-04-24T04:35:16.044Z,11.80
2018-04-24T04:36:16.113Z,11.40
2018-04-24T04:37:16.086Z,11.70
2018-04-24T04:38:16.105Z,11.90
2018-04-24T04:39:16.122Z,11.60
2018-04-24T04:40:16.140Z,11.50
2018-04-24T04:41:16.166Z,11.80
2018-04-24T04:42:16.179Z,12.30
2018-04-24T04:43:16.199Z,11.50
2018-04-24T04:44:16.222Z,12.10
2018-04-24T04:45:16.237Z,12.10
2018-04-24T04:46:16.258Z,11.70
2018-04-24T04:47:16.273Z,12.50
2018-04-24T04:48:16.350Z,12.00
2018-04-24T04:49:16.313Z,11.70
2018-04-24T04:50:16.337Z,12.00
2018-04-24T04:51:16.352Z,12.10
2018-04-24T04:52:16.375Z,12.30
2018-04-24T04:53:16.395Z,12.70
2018-04-24T04:54:16.411Z,12.10
2018-04-24T04:55:16.436Z,11.70
2018-04-24T04:56:16.453Z,12.30
2018-04-24T04:57:16.507Z,12.00
2018-04-24T04:58:16.499Z,12.60
2018-04-24T04:59:16.515Z,12.50
2018-04-24T05:00:16.581Z,12.10
2018-04-24T05:01:16.557Z,11.40
2018-04-24T05:02:16.570Z,12.30
2018-04-24T05:03:16.590Z,12.10
2018-04-24T05:04:16.606Z,12.20
2018-04-24T05:05:16.677Z,12.00
2018-04-24T05:06:16.698Z,12.70
2018-04-24T05:07:16.666Z,12.70
2018-04-24T05:08:16.685Z,12.30
2018-04-24T05:09:16.703Z,12.50
2018-04-24T05:10:16.725Z,13.00
2018-04-24T05:11:16.743Z,13.20
2018-04-24T05:12:16.759Z,12.20
2018-04-24T05:13:16.782Z,12.40
2018-04-24T05:14:16.799Z,12.30
2018-04-24T05:15:16.816Z,11.90
2018-04-24T05:16:16.840Z,12.80
2018-04-24T05:17:16.861Z,12.30
2018-04-24T05:18:16.882Z,12.00
2018-04-24T05:19:16.897Z,12.10
2018-04-24T05:20:16.954Z,12.40
2018-04-24T05:21:16.935Z,12.10
2018-04-24T05:22:16.961Z,12.10
2018-04-24T05:23:16.977Z,11.80
2018-04-24T05:24:16.998Z,12.10
2018-04-24T05:25:17.013Z,11.70
2018-04-24T05:26:17.070Z,11.70
2018-04-24T05:27:17.059Z,11.50
2018-04-24T05:28:17.071Z,12.50
2018-04-24T05:29:17.092Z,11.30
2018-04-24T05:30:17.115Z,11.90
2018-04-24T05:31:17.132Z,12.60
2018-04-24T05:32:17.149Z,11.70
2018-04-24T05:33:17.165Z,11.70
2018-04-24T05:34:17.183Z,11.30
2018-04-24T05:35:17.206Z,10.80
2018-04-24T05:36:17.279Z,10.70
2018-04-24T05:37:17.255Z,11.70
2018-04-24T05:38:17.261Z,11.40
2018-04-24T05:39:17.281Z,11.40
2018-04-24T05:40:17.308Z,12.00
2018-04-24T05:41:17.323Z,11.10
2018-04-24T05:42:17.342Z,12.20
2018-04-24T05:43:17.357Z,12.00
2018-04-24T05:44:17.381Z,12.00
2018-04-24T05:45:17.407Z,11.60
2018-04-24T05:46:17.424Z,11.70
2018-04-24T05:47:17.438Z,11.90
2018-04-24T05:48:17.508Z,11.40
2018-04-24T05:49:17.507Z,11.40
2018-04-24T05:50:17.493Z,11.00
2018-04-24T05:51:17.521Z,11.70
2018-04-24T05:52:17.539Z,11.90
2018-04-24T05:53:17.557Z,11.20
2018-04-24T05:54:17.625Z,11.80
2018-04-24T05:55:17.608Z,11.40
2018-04-24T05:56:17.611Z,11.50
2018-04-24T05:57:17.632Z,11.30
2018-04-24T05:58:17.656Z,12.20
2018-04-24T05:59:17.671Z,11.60
2018-04-24T06:00:17.747Z,11.90
2018-04-24T06:01:17.757Z,11.60
2018-04-24T06:02:17.736Z,11.60
2018-04-24T06:03:17.760Z,11.40
2018-04-24T06:04:17.769Z,11.70
2018-04-24T06:05:17.789Z,11.90
2018-04-24T06:06:17.860Z,11.00
2018-04-24T06:07:17.916Z,11.40
2018-04-24T06:08:17.855Z,11.60
2018-04-24T06:09:17.866Z,12.20
2018-04-24T06:10:17.885Z,11.10
2018-04-24T06:11:17.908Z,11.10
2018-04-24T06:12:17.929Z,11.10
2018-04-24T06:13:18.022Z,11.10
2018-04-24T06:14:17.965Z,11.60
2018-04-24T06:15:17.990Z,11.30
2018-04-24T06:16:18.026Z,10.70
2018-04-24T06:17:18.028Z,10.50
2018-04-24T06:18:18.099Z,10.70
2018-04-24T06:19:18.075Z,10.60
2018-04-24T06:20:18.082Z,10.80
2018-04-24T06:21:18.103Z,11.10
2018-04-24T06:22:18.128Z,11.10
2018-04-24T06:23:18.139Z,10.80
2018-04-24T06:24:18.218Z,11.40
2018-04-24T06:25:18.239Z,10.80
2018-04-24T06:26:18.200Z,10.70
2018-04-24T06:27:18.219Z,10.80
2018-04-24T06:28:18.241Z,10.70
2018-04-24T06:29:18.262Z,10.40
2018-04-24T06:30:18.341Z,10.40
2018-04-24T06:31:18.302Z,11.30
2018-04-24T06:32:18.319Z,10.80
2018-04-24T06:33:18.348Z,11.10
2018-04-24T06:34:18.358Z,10.70
2018-04-24T06:35:18.387Z,10.00
2018-04-24T06:36:18.451Z,10.30
2018-04-24T06:37:18.417Z,10.70
2018-04-24T06:38:18.432Z,10.60
2018-04-24T06:39:18.455Z,10.50
2018-04-24T06:40:18.474Z,10.10
2018-04-24T06:41:18.500Z,10.80
2018-04-24T06:42:18.568Z,10.90
2018-04-24T06:43:18.532Z,10.90
2018-04-24T06:44:18.548Z,11.00
2018-04-24T06:45:18.574Z,11.30
2018-04-24T06:46:18.593Z,11.00
2018-04-24T06:47:18.614Z,10.50
2018-04-24T06:48:18.721Z,10.60
2018-04-24T06:49:18.649Z,10.90
2018-04-24T06:50:18.667Z,10.60
2018-04-24T06:51:18.687Z,10.70
2018-04-24T06:52:18.705Z,10.50
2018-04-24T06:53:18.729Z,10.60
2018-04-24T06:54:18.818Z,11.10
2018-04-24T06:55:18.765Z,10.50
2018-04-24T06:56:18.786Z,11.00
2018-04-24T06:57:18.809Z,10.50
2018-04-24T06:58:18.822Z,10.60
2018-04-24T06:59:18.850Z,10.80
2018-04-24T07:00:18.917Z,10.60
2018-04-24T07:01:18.884Z,10.50
2018-04-24T07:02:18.902Z,10.20
2018-04-24T07:03:18.928Z,10.80
2018-04-24T07:04:18.949Z,10.00
2018-04-24T07:05:18.968Z,10.00
2018-04-24T07:06:19.052Z,10.10
2018-04-24T07:07:19.000Z,10.70
2018-04-24T07:08:19.027Z,10.60
2018-04-24T07:09:19.048Z,10.20
2018-04-24T07:10:19.065Z,10.00
2018-04-24T07:11:19.087Z,10.40
2018-04-24T07:12:19.107Z,10.60
2018-04-24T07:13:19.125Z,10.50
2018-04-24T07:14:19.139Z,10.10
2018-04-24T07:15:19.254Z,10.40
2018-04-24T07:16:19.199Z,11.20
2018-04-24T07:17:19.240Z,11.00
2018-04-24T07:18:19.277Z,10.50
2018-04-24T07:19:19.241Z,10.40
2018-04-24T07:20:19.259Z,10.60
2018-04-24T07:21:19.278Z,11.20
2018-04-24T07:22:19.380Z,10.40
2018-04-24T07:23:19.317Z,10.40
2018-04-24T07:24:19.341Z,11.10
2018-04-24T07:25:19.358Z,10.70
2018-04-24T07:26:19.386Z,10.50
2018-04-24T07:27:19.417Z,10.50
2018-04-24T07:28:19.446Z,10.60
2018-04-24T07:29:19.439Z,11.00
2018-04-24T07:30:19.457Z,11.20
2018-04-24T07:31:19.477Z,11.30
2018-04-24T07:32:19.496Z,10.70
2018-04-24T07:33:19.523Z,11.10
2018-04-24T07:34:19.539Z,10.90
2018-04-24T07:35:19.557Z,10.40
2018-04-24T07:36:19.636Z,10.60
2018-04-24T07:37:19.598Z,10.20
2018-04-24T07:38:19.620Z,10.50
2018-04-24T07:39:19.642Z,10.60
2018-04-24T07:40:19.669Z,10.30
2018-04-24T07:41:19.681Z,10.60
2018-04-24T07:42:19.699Z,10.50
2018-04-24T07:43:19.716Z,10.30
2018-04-24T07:44:19.763Z,9.90
2018-04-24T07:45:19.761Z,10.10
2018-04-24T07:46:19.780Z,9.40
2018-04-24T07:47:19.805Z,10.00
2018-04-24T07:48:19.878Z,11.80
2018-04-24T07:49:19.842Z,9.70
2018-04-24T07:50:19.935Z,10.40
2018-04-24T07:51:19.881Z,9.40
2018-04-24T07:52:19.905Z,10.00
2018-04-24T07:53:19.938Z,10.20
2018-04-24T07:54:19.949Z,9.90
2018-04-24T07:55:19.968Z,9.50
2018-04-24T07:56:19.985Z,10.20
2018-04-24T07:57:20.012Z,10.90
2018-04-24T07:58:20.038Z,10.50
2018-04-24T07:59:20.137Z,9.70
2018-04-24T08:00:20.074Z,9.70
2018-04-24T08:01:20.112Z,9.80
2018-04-24T08:02:20.116Z,9.60
2018-04-24T08:03:20.139Z,9.30
2018-04-24T08:04:20.155Z,9.00
2018-04-24T08:05:20.185Z,8.60
2018-04-24T08:06:20.251Z,8.70
2018-04-24T08:07:20.228Z,9.40
2018-04-24T08:08:20.250Z,9.90
2018-04-24T08:09:20.266Z,9.40
2018-04-24T08:10:20.292Z,9.40
2018-04-24T08:11:20.308Z,17.20
2018-04-24T08:12:20.338Z,8.90
2018-04-24T08:13:20.358Z,9.10
2018-04-24T08:14:20.376Z,8.70
2018-04-24T08:15:20.500Z,8.90
2018-04-24T08:16:20.420Z,9.20
2018-04-24T08:17:20.451Z,8.40
2018-04-24T08:18:20.518Z,8.80
2018-04-24T08:19:20.490Z,8.40
2018-04-24T08:20:20.511Z,9.00
2018-04-24T08:21:20.531Z,8.30
2018-04-24T08:22:20.552Z,9.40
2018-04-24T08:23:20.593Z,8.20
2018-04-24T08:24:20.596Z,8.70
2018-04-24T08:25:20.621Z,8.60
2018-04-24T08:26:20.648Z,8.50
2018-04-24T08:28:20.690Z,8.50
2018-04-24T08:29:20.715Z,8.00
2018-04-24T08:30:20.735Z,9.40
2018-04-24T08:31:20.761Z,7.60
2018-04-24T08:32:20.783Z,8.00
2018-04-24T08:33:20.809Z,10.00
2018-04-24T08:34:20.830Z,8.10
2018-04-24T08:35:20.850Z,8.50
2018-04-24T08:36:20.870Z,8.10
2018-04-24T08:37:20.892Z,8.10
2018-04-24T08:38:20.926Z,7.70
2018-04-24T08:39:20.946Z,7.90
2018-04-24T08:40:20.968Z,8.80
2018-04-24T08:41:20.997Z,8.40
2018-04-24T08:42:21.057Z,8.20
2018-04-24T08:43:21.035Z,8.40
2018-04-24T08:44:21.061Z,8.80
2018-04-24T08:45:21.078Z,7.40
2018-04-24T08:46:21.108Z,7.80
2018-04-24T08:47:21.181Z,8.20
2018-04-24T08:48:21.207Z,7.60
2018-04-24T08:49:21.180Z,7.60
2018-04-24T08:50:21.206Z,8.10
2018-04-24T08:51:21.222Z,8.20
2018-04-24T08:52:21.247Z,7.10
2018-04-24T08:53:21.363Z,9.90
2018-04-24T08:54:21.290Z,7.90
2018-04-24T08:55:21.314Z,7.30
2018-04-24T08:56:21.392Z,7.90
2018-04-24T08:57:21.371Z,8.90
2018-04-24T08:58:21.393Z,8.00
2018-04-24T08:59:21.422Z,7.90
2018-04-24T09:00:21.436Z,8.30
2018-04-24T09:01:21.464Z,7.70
2018-04-24T09:02:21.481Z,7.70
2018-04-24T09:03:21.507Z,7.80
2018-04-24T09:04:21.530Z,7.80
2018-04-24T09:05:21.605Z,7.90
2018-04-24T09:06:21.582Z,8.80
2018-04-24T09:07:21.599Z,7.30
2018-04-24T09:08:21.629Z,7.90
2018-04-24T09:09:21.651Z,8.10
2018-04-24T09:10:21.670Z,7.90
2018-04-24T09:11:21.741Z,7.50
2018-04-24T09:12:21.723Z,7.70
2018-04-24T09:13:21.750Z,7.60
2018-04-24T09:14:21.768Z,8.00
2018-04-24T09:15:21.798Z,7.50
2018-04-24T09:16:21.817Z,8.30
2018-04-24T09:17:21.925Z,8.10
2018-04-24T09:18:21.876Z,7.70
2018-04-24T09:19:21.913Z,9.70
2018-04-24T09:20:21.920Z,7.90
2018-04-24T09:21:21.948Z,7.60
2018-04-24T09:22:21.969Z,7.90
2018-04-24T09:23:22.000Z,8.70
2018-04-24T09:24:22.016Z,7.50
2018-04-24T09:25:22.040Z,7.60
2018-04-24T09:26:22.066Z,7.70
2018-04-24T09:27:22.091Z,9.50
2018-04-24T09:28:22.115Z,8.20
2018-04-24T09:29:22.139Z,7.50
2018-04-24T09:30:22.163Z,9.70
2018-04-24T09:31:22.189Z,8.80
2018-04-24T09:32:22.211Z,8.00
2018-04-24T09:33:22.287Z,7.90
2018-04-24T09:34:22.258Z,8.20
2018-04-24T09:35:22.340Z,7.90
2018-04-24T09:36:22.316Z,8.10
2018-04-24T09:37:22.342Z,8.30
2018-04-24T09:38:22.363Z,9.20
2018-04-24T09:39:22.399Z,8.00
2018-04-24T09:40:22.415Z,8.30
2018-04-24T09:41:22.495Z,8.00
2018-04-24T09:42:22.517Z,8.00
2018-04-24T09:43:22.491Z,8.50
2018-04-24T09:44:22.518Z,8.00
2018-04-24T09:45:22.543Z,8.50
2018-04-24T09:46:22.568Z,8.20
2018-04-24T09:47:22.596Z,12.70
2018-04-24T09:48:22.649Z,8.40
2018-04-24T09:49:22.680Z,8.20
2018-04-24T09:50:22.667Z,8.10
2018-04-24T09:51:22.714Z,8.10
2018-04-24T09:52:22.724Z,8.10
2018-04-24T09:53:22.748Z,7.80
2018-04-24T09:54:22.773Z,8.20
2018-04-24T09:55:22.796Z,8.60
2018-04-24T09:56:22.824Z,8.80
2018-04-24T09:57:22.843Z,9.40
2018-04-24T09:58:22.875Z,8.00
2018-04-24T09:59:22.999Z,8.70
2018-04-24T10:00:22.926Z,8.80
2018-04-24T10:01:22.946Z,8.80
2018-04-24T10:02:22.971Z,8.30
2018-04-24T10:03:23.007Z,8.50
2018-04-24T10:04:23.030Z,10.80
2018-04-24T10:05:23.146Z,8.40
2018-04-24T10:06:23.079Z,15.20
2018-04-24T10:07:23.100Z,11.80
2018-04-24T10:08:23.131Z,10.20
2018-04-24T10:09:23.154Z,9.60
2018-04-24T10:10:23.188Z,9.20
2018-04-24T10:11:23.290Z,8.10
2018-04-24T10:12:23.237Z,8.10
2018-04-24T10:13:23.286Z,8.50
2018-04-24T10:14:23.288Z,8.00
2018-04-24T10:15:23.315Z,8.40
2018-04-24T10:16:23.391Z,7.60
2018-04-24T10:17:23.401Z,9.40
2018-04-24T10:18:23.394Z,8.80
2018-04-24T10:19:23.415Z,8.90
2018-04-24T10:20:23.443Z,8.60
2018-04-24T10:21:23.466Z,9.90
2018-04-24T10:22:23.494Z,9.10
2018-04-24T10:23:23.521Z,8.50
2018-04-24T10:24:23.548Z,9.00
2018-04-24T10:25:23.572Z,9.00
2018-04-24T10:26:23.600Z,8.70
2018-04-24T10:27:23.636Z,8.90
2018-04-24T10:28:23.650Z,8.50
2018-04-24T10:29:23.676Z,9.30
2018-04-24T10:30:23.698Z,8.80
2018-04-24T10:31:23.740Z,8.90
2018-04-24T10:32:23.751Z,8.40
2018-04-24T10:33:23.783Z,8.50
2018-04-24T10:34:23.804Z,8.40
2018-04-24T10:35:23.882Z,8.50
2018-04-24T10:36:23.929Z,8.80
2018-04-24T10:37:23.977Z,9.30
2018-04-24T10:38:23.912Z,8.80
2018-04-24T10:39:23.935Z,8.50
2018-04-24T10:40:23.968Z,8.30
2018-04-24T10:41:23.988Z,8.10
2018-04-24T10:42:24.013Z,9.20
2018-04-24T10:43:24.039Z,9.30
2018-04-24T10:44:24.065Z,8.30
2018-04-24T10:45:24.090Z,10.40
2018-04-24T10:46:24.116Z,8.80
2018-04-24T10:47:24.146Z,8.10
2018-04-24T10:48:24.202Z,9.00
2018-04-24T10:49:24.197Z,8.40
2018-04-24T10:50:24.226Z,8.80
2018-04-24T10:51:24.253Z,9.90
2018-04-24T10:52:24.281Z,10.00
2018-04-24T10:53:24.307Z,8.40
2018-04-24T10:54:24.418Z,9.00
2018-04-24T10:55:24.352Z,8.80
2018-04-24T10:56:24.383Z,8.10
2018-04-24T10:57:24.411Z,8.30
2018-04-24T10:58:24.433Z,8.00
2018-04-24T10:59:24.609Z,8.40
2018-04-24T11:00:24.570Z,9.00
2018-04-24T11:01:24.513Z,9.00
2018-04-24T11:02:24.536Z,8.90
2018-04-24T11:03:24.566Z,8.50
2018-04-24T11:04:24.591Z,8.40
2018-04-24T11:05:24.680Z,9.00
2018-04-24T11:06:24.648Z,8.40
2018-04-24T11:07:24.672Z,8.60
2018-04-24T11:08:24.698Z,9.10
2018-04-24T11:09:24.727Z,8.30
2018-04-24T11:10:24.758Z,8.80
2018-04-24T11:11:24.786Z,16.00
2018-04-24T11:12:24.808Z,9.40
2018-04-24T11:13:24.833Z,9.60
2018-04-24T11:14:24.857Z,8.80
2018-04-24T11:15:24.887Z,9.60
2018-04-24T11:16:24.911Z,9.40
2018-04-24T11:17:24.979Z,12.40
2018-04-24T11:18:24.966Z,9.70
2018-04-24T11:19:24.994Z,9.40
2018-04-24T11:20:25.022Z,8.40
2018-04-24T11:21:25.074Z,8.50
2018-04-24T11:22:25.075Z,8.10
2018-04-24T11:23:25.110Z,8.30
2018-04-24T11:24:25.124Z,7.40
2018-04-24T11:25:25.167Z,8.30
2018-04-24T11:26:25.180Z,8.20
2018-04-24T11:27:25.212Z,8.50
2018-04-24T11:28:25.252Z,8.50
2018-04-24T11:29:25.265Z,8.90
2018-04-24T11:30:25.312Z,10.00
2018-04-24T11:31:25.311Z,10.00
2018-04-24T11:32:25.388Z,9.40
2018-04-24T11:33:25.373Z,8.70
2018-04-24T11:34:25.483Z,9.30
2018-04-24T11:35:25.473Z,10.00
2018-04-24T11:36:25.453Z,9.20
2018-04-24T11:37:25.477Z,9.70
2018-04-24T11:38:25.509Z,9.50
2018-04-24T11:39:25.563Z,10.40
2018-04-24T11:40:25.560Z,9.80
2018-04-24T11:41:25.730Z,9.60
2018-04-24T11:42:25.613Z,9.20
2018-04-24T11:43:25.641Z,9.30
2018-04-24T11:44:25.672Z,9.30
2018-04-24T11:45:25.725Z,11.30
2018-04-24T11:46:25.722Z,10.70
2018-04-24T11:47:25.746Z,11.70
2018-04-24T11:48:25.777Z,9.50
2018-04-24T11:49:25.800Z,9.00
2018-04-24T11:50:25.829Z,8.90
2018-04-24T11:51:25.859Z,9.00
2018-04-24T11:52:25.887Z,9.40
2018-04-24T11:53:25.919Z,8.90
2018-04-24T11:54:25.940Z,11.60
2018-04-24T11:55:25.967Z,9.40
2018-04-24T11:56:26.010Z,8.80
2018-04-24T11:57:26.021Z,8.70
2018-04-24T11:58:26.050Z,9.70
2018-04-24T11:59:26.081Z,9.50
2018-04-24T12:00:26.098Z,9.30
2018-04-24T12:01:26.132Z,8.90
2018-04-24T12:02:26.156Z,8.90
2018-04-24T12:03:26.187Z,8.50
2018-04-24T12:04:26.212Z,9.40
2018-04-24T12:05:26.234Z,9.70
2018-04-24T12:06:26.268Z,8.60
2018-04-24T12:07:26.291Z,9.00
2018-04-24T12:08:26.317Z,8.70
2018-04-24T12:09:26.344Z,8.70
2018-04-24T12:10:26.370Z,8.70
2018-04-24T12:11:26.401Z,8.60
2018-04-24T12:12:26.429Z,8.70
2018-04-24T12:13:26.498Z,9.80
2018-04-24T12:14:26.478Z,8.60
2018-04-24T12:15:26.517Z,8.20
2018-04-24T12:16:26.540Z,8.90
2018-04-24T12:17:26.619Z,9.40
2018-04-24T12:18:26.590Z,9.30
2018-04-24T12:19:26.706Z,9.20
2018-04-24T12:21:26.671Z,10.80
2018-04-24T12:22:26.705Z,9.40
2018-04-24T12:23:26.789Z,9.00
2018-04-24T12:24:26.805Z,9.30
2018-04-24T12:25:26.784Z,9.70
2018-04-24T12:26:26.810Z,9.10
2018-04-24T12:27:26.837Z,11.30
2018-04-24T12:28:26.874Z,14.70
2018-04-24T12:29:26.899Z,9.30
2018-04-24T12:30:26.973Z,8.70
2018-04-24T12:31:26.946Z,8.50
2018-04-24T12:32:26.981Z,8.70
2018-04-24T12:33:27.001Z,8.50
2018-04-24T12:34:27.035Z,8.50
2018-04-24T12:35:27.063Z,8.40
2018-04-24T12:36:27.137Z,8.00
2018-04-24T12:37:27.117Z,8.50
2018-04-24T12:38:27.183Z,9.00
2018-04-24T12:39:27.177Z,8.00
2018-04-24T12:40:27.198Z,9.00
2018-04-24T12:41:27.224Z,8.80
2018-04-24T12:42:27.386Z,10.00
2018-04-24T12:43:27.281Z,8.80
2018-04-24T12:44:27.309Z,8.90
2018-04-24T12:45:27.334Z,11.70
2018-04-24T12:46:27.366Z,8.90
2018-04-24T12:47:27.444Z,10.70
2018-04-24T12:48:27.424Z,19.10
2018-04-24T12:49:27.452Z,14.30
2018-04-24T12:50:27.478Z,11.70
2018-04-24T12:51:27.508Z,12.70
2018-04-24T12:52:27.536Z,10.00
2018-04-24T12:53:27.617Z,10.90
2018-04-24T12:54:27.592Z,10.20
2018-04-24T12:55:27.616Z,10.10
2018-04-24T12:56:27.735Z,9.60
2018-04-24T12:57:27.680Z,9.40
2018-04-24T12:58:27.702Z,9.90
2018-04-24T12:59:27.726Z,11.40
2018-04-24T13:00:27.782Z,10.00
2018-04-24T13:01:27.784Z,10.40
2018-04-24T13:02:27.810Z,10.80
2018-04-24T13:03:27.838Z,11.10
2018-04-24T13:04:27.870Z,16.90
2018-04-24T13:05:27.950Z,12.50
2018-04-24T13:06:27.926Z,12.10
2018-04-24T13:07:27.948Z,11.80
2018-04-24T13:08:27.974Z,10.40
2018-04-24T13:09:28.023Z,10.60